Terminal Aerodrome Forecast
Issued by NWS

Home | Current Version | Previous Version | Text Only | Print | Product List | Glossary On
Versions: 1 2 3 4 5 6 7 8 9 10 11 12 13 14
000
FTUS42 KMLB 311700
TAFISM
TAF
KISM 311724Z 3118/0118 19005KT P6SM SCT035 SCT250
     FM312100 12006KT P6SM VCTS SCT050CB BKN250
     FM010200 VRB03KT P6SM FEW060 SCT090 BKN250
     FM011400 20004KT P6SM FEW020 SCT250=

USA.gov is the U.S. government's official web portal to all federal, state and local government web resources and services.